首页
METAR-TAF:

METAR-TAF

机场 :

魁北克让·勒萨热国际机场

魁北克, 魁北克, 加拿大

纬度: 46-48N, 经度: 071-23W, 海拔: 70米

当前天气观测

该预报发布于50分钟前的01:00 UTC
风速9节,风向西
温度 -20°C
湿度 77%
气压 1033 hPa
能見度: 24.1公里
多云层高于21000英尺

METAR: CYQB 230100Z 26009KT 15SM BKN210 M20/M23 A3050 RMK CI7 SLP340

时间: 20:50 (01:50 UTC)

预报

该预报发布于2小时和12分钟前的23:38 UTC
预报有效从23日的 00点(UTC)到 23日的 24点(UTC)
风速10节,风向西转西南
能見度: 10公里
多云层高于22000英尺
从 23日的 0400点(UTC)
风速5节,风向西转西南
能見度: 10公里
阴天层高于10000英尺
短暂存在
从 23日的 04点(UTC)到 23日的 09点(UTC)
能見度: 10公里
小雪
从 23日的 0900点(UTC)
风速5节,风向东北
能見度: 6.4公里
阴天层高于4000英尺
小雪
几率 30%
从 23日的 10点(UTC)到 23日的 14点(UTC)
小阵雪
从 23日的 2200点(UTC)
风速10节,风向东转东北
阴天层高于1500英尺
小雪

TAF: CYQB 222338Z 2300/2324 24010KT P6SM BKN220 FM230400 24005KT P6SM OVC100 TEMPO 2304/2309 P6SM -SN FM230900 04005KT 4SM -SN OVC040 PROB30 2310/2314 11/2SM -SHSN FM232200 06010KT 11/2SM -SN OVC015 RMK NXT FCST BY 230600Z

超过4000个机场的气象观测和天气预报(METAR&TAF报告)。

可查询的气象台以黄色和红色小点在地图上表示。

将鼠标移到小点上方,可查看气象台名称。

然后点击查看天气观测和预报。

如需切换地图:点击带黑十字的绿色按钮放大地图;点击带横线的绿色按钮缩小地图;或者点击绿色箭头查看邻近地区的地图。


METAR-TAF: